Aviation Digital Data Service (ADDS)

Output produced by METARs form (1122 UTC 19 February 2019)
found at http://www.aviationweather.gov/metar/data/
 
METAR text: ESSB 191050Z 22007KT 9999 SCT012 BKN100 06/04 Q0997 R12/19//57
Conditions at: ESSB (STOCKHOLM/BROMMA, SE) observed 1050 UTC 19 February 2019
Temperature: 6.0°C (43°F)
Dewpoint: 4.0°C (39°F) [RH = 87%]
Pressure (altimeter): 29.44 inches Hg (997.0 mb)
Winds: from the SW (220 degrees) at 8 MPH (7 knots; 3.6 m/s)
Visibility: 6 or more miles (10+ km)
Ceiling: 10000 feet AGL
Clouds: scattered clouds at 1200 feet AGL
broken clouds at 10000 feet AGL
Weather: no significant weather observed at this time

METAR text: ESSB 191020Z 21006KT 9999 BKN013 06/04 Q0998 R12/19//57
Conditions at: ESSB (STOCKHOLM/BROMMA, SE) observed 1020 UTC 19 February 2019
Temperature: 6.0°C (43°F)
Dewpoint: 4.0°C (39°F) [RH = 87%]
Pressure (altimeter): 29.47 inches Hg (998.0 mb)
Winds: from the SSW (210 degrees) at 7 MPH (6 knots; 3.1 m/s)
Visibility: 6 or more miles (10+ km)
Ceiling: 1300 feet AGL
Clouds: broken clouds at 1300 feet AGL
Weather: no significant weather observed at this time

METAR text: ESSB 190950Z 22006KT 9999 SCT012 BKN025 06/04 Q0998 R12/19//57
Conditions at: ESSB (STOCKHOLM/BROMMA, SE) observed 0950 UTC 19 February 2019
Temperature: 6.0°C (43°F)
Dewpoint: 4.0°C (39°F) [RH = 87%]
Pressure (altimeter): 29.47 inches Hg (998.0 mb)
Winds: from the SW (220 degrees) at 7 MPH (6 knots; 3.1 m/s)
Visibility: 6 or more miles (10+ km)
Ceiling: 2500 feet AGL
Clouds: scattered clouds at 1200 feet AGL
broken clouds at 2500 feet AGL
Weather: no significant weather observed at this time

METAR text: ESSB 190920Z 22007KT 9999 SCT012 BKN025 06/04 Q0998 R12/19//57
Conditions at: ESSB (STOCKHOLM/BROMMA, SE) observed 0920 UTC 19 February 2019
Temperature: 6.0°C (43°F)
Dewpoint: 4.0°C (39°F) [RH = 87%]
Pressure (altimeter): 29.47 inches Hg (998.0 mb)
Winds: from the SW (220 degrees) at 8 MPH (7 knots; 3.6 m/s)
Visibility: 6 or more miles (10+ km)
Ceiling: 2500 feet AGL
Clouds: scattered clouds at 1200 feet AGL
broken clouds at 2500 feet AGL
Weather: no significant weather observed at this time

METAR text: ESSB 190850Z 21007KT 8000 FEW013 SCT020 05/04 Q0999 R12/19//57
Conditions at: ESSB (STOCKHOLM/BROMMA, SE) observed 0850 UTC 19 February 2019
Temperature: 5.0°C (41°F)
Dewpoint: 4.0°C (39°F) [RH = 93%]
Pressure (altimeter): 29.50 inches Hg (999.0 mb)
Winds: from the SSW (210 degrees) at 8 MPH (7 knots; 3.6 m/s)
Visibility: 5 miles ( 8 km)
Ceiling: at least 12,000 feet AGL
Clouds: few clouds at 1300 feet AGL
scattered clouds at 2000 feet AGL
Weather: no significant weather observed at this time

METAR text: ESSB 190820Z 21005KT 5000 BR BKN014 05/04 Q0999 R12/19//57
Conditions at: ESSB (STOCKHOLM/BROMMA, SE) observed 0820 UTC 19 February 2019
Temperature: 5.0°C (41°F)
Dewpoint: 4.0°C (39°F) [RH = 93%]
Pressure (altimeter): 29.50 inches Hg (999.0 mb)
Winds: from the SSW (210 degrees) at 6 MPH (5 knots; 2.6 m/s)
Visibility: 3 miles ( 5 km)
Ceiling: 1400 feet AGL
Clouds: broken clouds at 1400 feet AGL
Weather: BR  (mist)

METAR text: ESSB 190750Z 21006KT 4900 BR SCT006 OVC008 05/04 Q1000 REDZ R12/19//57
Conditions at: ESSB (STOCKHOLM/BROMMA, SE) observed 0750 UTC 19 February 2019
Temperature: 5.0°C (41°F)
Dewpoint: 4.0°C (39°F) [RH = 93%]
Pressure (altimeter): 29.53 inches Hg (1000.0 mb)
Winds: from the SSW (210 degrees) at 7 MPH (6 knots; 3.1 m/s)
Visibility: 3 miles ( 5 km)
Ceiling: 800 feet AGL
Clouds: scattered clouds at 600 feet AGL
overcast cloud deck at 800 feet AGL
Weather: BR  (mist)

METAR text: ESSB 190720Z 21007KT 4700 BR BKN010 05/04 Q1000 REDZ R12/19//57
Conditions at: ESSB (STOCKHOLM/BROMMA, SE) observed 0720 UTC 19 February 2019
Temperature: 5.0°C (41°F)
Dewpoint: 4.0°C (39°F) [RH = 93%]
Pressure (altimeter): 29.53 inches Hg (1000.0 mb)
Winds: from the SSW (210 degrees) at 8 MPH (7 knots; 3.6 m/s)
Visibility: 2.92 miles (4.70 km)
Ceiling: 1000 feet AGL
Clouds: broken clouds at 1000 feet AGL
Weather: BR  (mist)

METAR text: ESSB 190650Z 21006KT 4500 -DZ BR FEW005 BKN013 BKN025 04/04 Q1000 R12/19//57
Conditions at: ESSB (STOCKHOLM/BROMMA, SE) observed 0650 UTC 19 February 2019
Temperature: 4.0°C (39°F)
Dewpoint: 4.0°C (39°F) [RH = 100%]
Pressure (altimeter): 29.53 inches Hg (1000.0 mb)
Winds: from the SSW (210 degrees) at 7 MPH (6 knots; 3.1 m/s)
Visibility: 2.80 miles (4.51 km)
Ceiling: 1300 feet AGL
Clouds: few clouds at 500 feet AGL
broken clouds at 1300 feet AGL
broken clouds at 2500 feet AGL
Weather: -DZ BR  (light drizzle, mist)

METAR text: ESSB 190620Z 21005KT 180V250 5000 -DZ SCT005 BKN006 BKN015 04/04 Q1001 R12/19//57
Conditions at: ESSB (STOCKHOLM/BROMMA, SE) observed 0620 UTC 19 February 2019
Temperature: 4.0°C (39°F)
Dewpoint: 4.0°C (39°F) [RH = 100%]
Pressure (altimeter): 29.56 inches Hg (1001.0 mb)
Winds: from the SSW (210 degrees) at 6 MPH (5 knots; 2.6 m/s)
Visibility: 3 miles ( 5 km)
Ceiling: 600 feet AGL
Clouds: scattered clouds at 500 feet AGL
broken clouds at 600 feet AGL
broken clouds at 1500 feet AGL
Weather: -DZ  (light drizzle)

METAR text: ESSB 190550Z 21008KT 5000 -RA BKN008 04/04 Q1001 R12/19//57
Conditions at: ESSB (STOCKHOLM/BROMMA, SE) observed 0550 UTC 19 February 2019
Temperature: 4.0°C (39°F)
Dewpoint: 4.0°C (39°F) [RH = 100%]
Pressure (altimeter): 29.56 inches Hg (1001.0 mb)
Winds: from the SSW (210 degrees) at 9 MPH (8 knots; 4.1 m/s)
Visibility: 3 miles ( 5 km)
Ceiling: 800 feet AGL
Clouds: broken clouds at 800 feet AGL
Weather: -RA  (light rain)

METAR text: ESSB 190520Z 21006KT 6000 BR BKN006 04/03 Q1001 R12/19//57
Conditions at: ESSB (STOCKHOLM/BROMMA, SE) observed 0520 UTC 19 February 2019
Temperature: 4.0°C (39°F)
Dewpoint: 3.0°C (37°F) [RH = 93%]
Pressure (altimeter): 29.56 inches Hg (1001.0 mb)
Winds: from the SSW (210 degrees) at 7 MPH (6 knots; 3.1 m/s)
Visibility: 4 miles ( 6 km)
Ceiling: 600 feet AGL
Clouds: broken clouds at 600 feet AGL
Weather: BR  (mist)

METAR text: ESSB 190450Z AUTO 20006KT 160V220 6000 BR SCT005/// BKN006/// OVC100/// 04/04 Q1001
Conditions at: ESSB (STOCKHOLM/BROMMA, SE) observed 0450 UTC 19 February 2019
Temperature: 4.0°C (39°F)
Dewpoint: 4.0°C (39°F) [RH = 100%]
Pressure (altimeter): 29.56 inches Hg (1001.0 mb)
Winds: from the SSW (200 degrees) at 7 MPH (6 knots; 3.1 m/s)
Visibility: 4 miles ( 6 km)
Ceiling: 600 feet AGL
Clouds: scattered clouds at 500 feet AGL
broken clouds at 600 feet AGL
overcast cloud deck at 10000 feet AGL
Weather: BR  (mist)

METAR text: ESSB 190420Z AUTO 19005KT 6000 BR BKN005/// OVC007/// 04/03 Q1002
Conditions at: ESSB (STOCKHOLM/BROMMA, SE) observed 0420 UTC 19 February 2019
Temperature: 4.0°C (39°F)
Dewpoint: 3.0°C (37°F) [RH = 93%]
Pressure (altimeter): 29.59 inches Hg (1002.0 mb)
Winds: from the S (190 degrees) at 6 MPH (5 knots; 2.6 m/s)
Visibility: 4 miles ( 6 km)
Ceiling: 500 feet AGL
Clouds: broken clouds at 500 feet AGL
overcast cloud deck at 700 feet AGL
Weather: BR  (mist)

METAR text: ESSB 190350Z AUTO 19006KT 6000 BR SCT005/// BKN008/// OVC012/// 04/03 Q1002
Conditions at: ESSB (STOCKHOLM/BROMMA, SE) observed 0350 UTC 19 February 2019
Temperature: 4.0°C (39°F)
Dewpoint: 3.0°C (37°F) [RH = 93%]
Pressure (altimeter): 29.59 inches Hg (1002.0 mb)
Winds: from the S (190 degrees) at 7 MPH (6 knots; 3.1 m/s)
Visibility: 4 miles ( 6 km)
Ceiling: 800 feet AGL
Clouds: scattered clouds at 500 feet AGL
broken clouds at 800 feet AGL
overcast cloud deck at 1200 feet AGL
Weather: BR  (mist)

METAR text: ESSB 190320Z AUTO 20004KT 7000 BR VV010 03/03 Q1003
Conditions at: ESSB (STOCKHOLM/BROMMA, SE) observed 0320 UTC 19 February 2019
Temperature: 3.0°C (37°F)
Dewpoint: 3.0°C (37°F) [RH = 100%]
Pressure (altimeter): 29.62 inches Hg (1003.0 mb)
Winds: from the SSW (200 degrees) at 5 MPH (4 knots; 2.1 m/s)
Visibility: 4 miles ( 7 km)
Ceiling: indefinite ceiling with vertical visibility of 1000 feet AGL
Clouds: obscured sky
Weather: BR  (mist)

METAR text: ESSB 190250Z AUTO 19004KT 7000 BR NCD 03/03 Q1003
Conditions at: ESSB (STOCKHOLM/BROMMA, SE) observed 0250 UTC 19 February 2019
Temperature: 3.0°C (37°F)
Dewpoint: 3.0°C (37°F) [RH = 100%]
Pressure (altimeter): 29.62 inches Hg (1003.0 mb)
Winds: from the S (190 degrees) at 5 MPH (4 knots; 2.1 m/s)
Visibility: 4 miles ( 7 km)
Ceiling: at least 12,000 feet AGL
Clouds: sky clear below 12,000 feet AGL
Weather: BR  (mist)

METAR text: ESSB 190220Z AUTO 19006KT 8000 BR FEW012/// 03/03 Q1004
Conditions at: ESSB (STOCKHOLM/BROMMA, SE) observed 0220 UTC 19 February 2019
Temperature: 3.0°C (37°F)
Dewpoint: 3.0°C (37°F) [RH = 100%]
Pressure (altimeter): 29.65 inches Hg (1004.0 mb)
Winds: from the S (190 degrees) at 7 MPH (6 knots; 3.1 m/s)
Visibility: 5 miles ( 8 km)
Ceiling: at least 12,000 feet AGL
Clouds: few clouds at 1200 feet AGL
Weather: BR  (mist)

METAR text: ESSB 190150Z AUTO 20005KT 160V230 9000 BR NCD 03/03 Q1005
Conditions at: ESSB (STOCKHOLM/BROMMA, SE) observed 0150 UTC 19 February 2019
Temperature: 3.0°C (37°F)
Dewpoint: 3.0°C (37°F) [RH = 100%]
Pressure (altimeter): 29.68 inches Hg (1005.0 mb)
Winds: from the SSW (200 degrees) at 6 MPH (5 knots; 2.6 m/s)
Visibility: 6 miles ( 9 km)
Ceiling: at least 12,000 feet AGL
Clouds: sky clear below 12,000 feet AGL
Weather: BR  (mist)

METAR text: ESSB 190120Z AUTO 20006KT 8000 BR NCD 04/03 Q1005
Conditions at: ESSB (STOCKHOLM/BROMMA, SE) observed 0120 UTC 19 February 2019
Temperature: 4.0°C (39°F)
Dewpoint: 3.0°C (37°F) [RH = 93%]
Pressure (altimeter): 29.68 inches Hg (1005.0 mb)
Winds: from the SSW (200 degrees) at 7 MPH (6 knots; 3.1 m/s)
Visibility: 5 miles ( 8 km)
Ceiling: at least 12,000 feet AGL
Clouds: sky clear below 12,000 feet AGL
Weather: BR  (mist)

METAR text: ESSB 190050Z AUTO 21007KT 7000 BR FEW020/// 03/03 Q1006
Conditions at: ESSB (STOCKHOLM/BROMMA, SE) observed 0050 UTC 19 February 2019
Temperature: 3.0°C (37°F)
Dewpoint: 3.0°C (37°F) [RH = 100%]
Pressure (altimeter): 29.70 inches Hg (1006.0 mb)
Winds: from the SSW (210 degrees) at 8 MPH (7 knots; 3.6 m/s)
Visibility: 4 miles ( 7 km)
Ceiling: at least 12,000 feet AGL
Clouds: few clouds at 2000 feet AGL
Weather: BR  (mist)

METAR text: ESSB 190020Z AUTO 20005KT 7000 BR FEW019/// 03/02 Q1006
Conditions at: ESSB (STOCKHOLM/BROMMA, SE) observed 0020 UTC 19 February 2019
Temperature: 3.0°C (37°F)
Dewpoint: 2.0°C (36°F) [RH = 93%]
Pressure (altimeter): 29.70 inches Hg (1006.0 mb)
Winds: from the SSW (200 degrees) at 6 MPH (5 knots; 2.6 m/s)
Visibility: 4 miles ( 7 km)
Ceiling: at least 12,000 feet AGL
Clouds: few clouds at 1900 feet AGL
Weather: BR  (mist)

METAR text: ESSB 182350Z AUTO 19005KT 7000 BR FEW200/// 03/03 Q1006
Conditions at: ESSB (STOCKHOLM/BROMMA, SE) observed 2350 UTC 18 February 2019
Temperature: 3.0°C (37°F)
Dewpoint: 3.0°C (37°F) [RH = 100%]
Pressure (altimeter): 29.70 inches Hg (1006.0 mb)
Winds: from the S (190 degrees) at 6 MPH (5 knots; 2.6 m/s)
Visibility: 4 miles ( 7 km)
Ceiling: at least 12,000 feet AGL
Clouds: few clouds at 20000 feet AGL
Weather: BR  (mist)

METAR text: ESSB 182320Z AUTO 21007KT 8000 BR SCT015/// 04/03 Q1007
Conditions at: ESSB (STOCKHOLM/BROMMA, SE) observed 2320 UTC 18 February 2019
Temperature: 4.0°C (39°F)
Dewpoint: 3.0°C (37°F) [RH = 93%]
Pressure (altimeter): 29.73 inches Hg (1007.0 mb)
Winds: from the SSW (210 degrees) at 8 MPH (7 knots; 3.6 m/s)
Visibility: 5 miles ( 8 km)
Ceiling: at least 12,000 feet AGL
Clouds: scattered clouds at 1500 feet AGL
Weather: BR  (mist)

METAR text: ESSB 182250Z AUTO 22007KT 9000 BR FEW180/// 04/03 Q1007
Conditions at: ESSB (STOCKHOLM/BROMMA, SE) observed 2250 UTC 18 February 2019
Temperature: 4.0°C (39°F)
Dewpoint: 3.0°C (37°F) [RH = 93%]
Pressure (altimeter): 29.73 inches Hg (1007.0 mb)
Winds: from the SW (220 degrees) at 8 MPH (7 knots; 3.6 m/s)
Visibility: 6 miles ( 9 km)
Ceiling: at least 12,000 feet AGL
Clouds: few clouds at 18000 feet AGL
Weather: BR  (mist)

METAR text: ESSB 182220Z AUTO 20006KT 9999 FEW180/// 04/03 Q1007
Conditions at: ESSB (STOCKHOLM/BROMMA, SE) observed 2220 UTC 18 February 2019
Temperature: 4.0°C (39°F)
Dewpoint: 3.0°C (37°F) [RH = 93%]
Pressure (altimeter): 29.73 inches Hg (1007.0 mb)
Winds: from the SSW (200 degrees) at 7 MPH (6 knots; 3.1 m/s)
Visibility: 6 or more miles (10+ km)
Ceiling: at least 12,000 feet AGL
Clouds: few clouds at 18000 feet AGL
Weather: no significant weather observed at this time

METAR text: ESSB 182150Z AUTO 21008KT 9999 NCD 04/03 Q1007
Conditions at: ESSB (STOCKHOLM/BROMMA, SE) observed 2150 UTC 18 February 2019
Temperature: 4.0°C (39°F)
Dewpoint: 3.0°C (37°F) [RH = 93%]
Pressure (altimeter): 29.73 inches Hg (1007.0 mb)
Winds: from the SSW (210 degrees) at 9 MPH (8 knots; 4.1 m/s)
Visibility: 6 or more miles (10+ km)
Ceiling: at least 12,000 feet AGL
Clouds: sky clear below 12,000 feet AGL
Weather: no significant weather observed at this time

METAR text: ESSB 182120Z AUTO 21008KT 9999 NCD 04/03 Q1007
Conditions at: ESSB (STOCKHOLM/BROMMA, SE) observed 2120 UTC 18 February 2019
Temperature: 4.0°C (39°F)
Dewpoint: 3.0°C (37°F) [RH = 93%]
Pressure (altimeter): 29.73 inches Hg (1007.0 mb)
Winds: from the SSW (210 degrees) at 9 MPH (8 knots; 4.1 m/s)
Visibility: 6 or more miles (10+ km)
Ceiling: at least 12,000 feet AGL
Clouds: sky clear below 12,000 feet AGL
Weather: no significant weather observed at this time

METAR text: ESSB 182050Z 20007KT CAVOK 04/03 Q1008
Conditions at: ESSB (STOCKHOLM/BROMMA, SE) observed 2050 UTC 18 February 2019
Temperature: 4.0°C (39°F)
Dewpoint: 3.0°C (37°F) [RH = 93%]
Pressure (altimeter): 29.76 inches Hg (1008.0 mb)
Winds: from the SSW (200 degrees) at 8 MPH (7 knots; 3.6 m/s)
Visibility: 6 or more miles (10+ km)
Ceiling: ceiling and visibility are OK
Clouds: unknown
Weather: no significant weather observed at this time

METAR text: ESSB 182020Z 20009KT 9999 FEW026 04/03 Q1008
Conditions at: ESSB (STOCKHOLM/BROMMA, SE) observed 2020 UTC 18 February 2019
Temperature: 4.0°C (39°F)
Dewpoint: 3.0°C (37°F) [RH = 93%]
Pressure (altimeter): 29.76 inches Hg (1008.0 mb)
Winds: from the SSW (200 degrees) at 10 MPH (9 knots; 4.6 m/s)
Visibility: 6 or more miles (10+ km)
Ceiling: at least 12,000 feet AGL
Clouds: few clouds at 2600 feet AGL
Weather: no significant weather observed at this time

METAR text: ESSB 181950Z 21008KT 9999 FEW026 04/03 Q1008 R12/09//74
Conditions at: ESSB (STOCKHOLM/BROMMA, SE) observed 1950 UTC 18 February 2019
Temperature: 4.0°C (39°F)
Dewpoint: 3.0°C (37°F) [RH = 93%]
Pressure (altimeter): 29.76 inches Hg (1008.0 mb)
Winds: from the SSW (210 degrees) at 9 MPH (8 knots; 4.1 m/s)
Visibility: 6 or more miles (10+ km)
Ceiling: at least 12,000 feet AGL
Clouds: few clouds at 2600 feet AGL
Weather: no significant weather observed at this time

METAR text: ESSB 181920Z 21008KT 9999 SCT027 BKN033 04/03 Q1008 R12/09//74
Conditions at: ESSB (STOCKHOLM/BROMMA, SE) observed 1920 UTC 18 February 2019
Temperature: 4.0°C (39°F)
Dewpoint: 3.0°C (37°F) [RH = 93%]
Pressure (altimeter): 29.76 inches Hg (1008.0 mb)
Winds: from the SSW (210 degrees) at 9 MPH (8 knots; 4.1 m/s)
Visibility: 6 or more miles (10+ km)
Ceiling: 3300 feet AGL
Clouds: scattered clouds at 2700 feet AGL
broken clouds at 3300 feet AGL
Weather: no significant weather observed at this time

METAR text: ESSB 181850Z 22007KT 9999 BKN030 05/03 Q1008 R12/09//74
Conditions at: ESSB (STOCKHOLM/BROMMA, SE) observed 1850 UTC 18 February 2019
Temperature: 5.0°C (41°F)
Dewpoint: 3.0°C (37°F) [RH = 87%]
Pressure (altimeter): 29.76 inches Hg (1008.0 mb)
Winds: from the SW (220 degrees) at 8 MPH (7 knots; 3.6 m/s)
Visibility: 6 or more miles (10+ km)
Ceiling: 3000 feet AGL
Clouds: broken clouds at 3000 feet AGL
Weather: no significant weather observed at this time

METAR text: ESSB 181820Z 20008KT 9999 BKN029 05/03 Q1009 R12/09//74
Conditions at: ESSB (STOCKHOLM/BROMMA, SE) observed 1820 UTC 18 February 2019
Temperature: 5.0°C (41°F)
Dewpoint: 3.0°C (37°F) [RH = 87%]
Pressure (altimeter): 29.79 inches Hg (1009.0 mb)
Winds: from the SSW (200 degrees) at 9 MPH (8 knots; 4.1 m/s)
Visibility: 6 or more miles (10+ km)
Ceiling: 2900 feet AGL
Clouds: broken clouds at 2900 feet AGL
Weather: no significant weather observed at this time

METAR text: ESSB 181750Z 19008KT 9000 BR BKN026 04/03 Q1009 R12/09//74
Conditions at: ESSB (STOCKHOLM/BROMMA, SE) observed 1750 UTC 18 February 2019
Temperature: 4.0°C (39°F)
Dewpoint: 3.0°C (37°F) [RH = 93%]
Pressure (altimeter): 29.79 inches Hg (1009.0 mb)
Winds: from the S (190 degrees) at 9 MPH (8 knots; 4.1 m/s)
Visibility: 6 miles ( 9 km)
Ceiling: 2600 feet AGL
Clouds: broken clouds at 2600 feet AGL
Weather: BR  (mist)

METAR text: ESSB 181720Z 19008KT 8000 BR FEW004 BKN024 04/03 Q1009 R12/09//74
Conditions at: ESSB (STOCKHOLM/BROMMA, SE) observed 1720 UTC 18 February 2019
Temperature: 4.0°C (39°F)
Dewpoint: 3.0°C (37°F) [RH = 93%]
Pressure (altimeter): 29.79 inches Hg (1009.0 mb)
Winds: from the S (190 degrees) at 9 MPH (8 knots; 4.1 m/s)
Visibility: 5 miles ( 8 km)
Ceiling: 2400 feet AGL
Clouds: few clouds at 400 feet AGL
broken clouds at 2400 feet AGL
Weather: BR  (mist)

METAR text: ESSB 181650Z 19008KT 4800 BR OVC004 04/03 Q1009 R12/09//74
Conditions at: ESSB (STOCKHOLM/BROMMA, SE) observed 1650 UTC 18 February 2019
Temperature: 4.0°C (39°F)
Dewpoint: 3.0°C (37°F) [RH = 93%]
Pressure (altimeter): 29.79 inches Hg (1009.0 mb)
Winds: from the S (190 degrees) at 9 MPH (8 knots; 4.1 m/s)
Visibility: 2.98 miles (4.80 km)
Ceiling: 400 feet AGL
Clouds: overcast cloud deck at 400 feet AGL
Weather: BR  (mist)

METAR text: ESSB 181620Z 18008KT 5000 BR BKN004 BKN006 04/03 Q1010 R12/09//74
Conditions at: ESSB (STOCKHOLM/BROMMA, SE) observed 1620 UTC 18 February 2019
Temperature: 4.0°C (39°F)
Dewpoint: 3.0°C (37°F) [RH = 93%]
Pressure (altimeter): 29.82 inches Hg (1010.0 mb)
Winds: from the S (180 degrees) at 9 MPH (8 knots; 4.1 m/s)
Visibility: 3 miles ( 5 km)
Ceiling: 400 feet AGL
Clouds: broken clouds at 400 feet AGL
broken clouds at 600 feet AGL
Weather: BR  (mist)

METAR text: ESSB 181550Z 18009KT 150V210 7000 BKN006 04/03 Q1010 R12/09//74
Conditions at: ESSB (STOCKHOLM/BROMMA, SE) observed 1550 UTC 18 February 2019
Temperature: 4.0°C (39°F)
Dewpoint: 3.0°C (37°F) [RH = 93%]
Pressure (altimeter): 29.82 inches Hg (1010.0 mb)
Winds: from the S (180 degrees) at 10 MPH (9 knots; 4.6 m/s)
Visibility: 4 miles ( 7 km)
Ceiling: 600 feet AGL
Clouds: broken clouds at 600 feet AGL
Weather: no significant weather observed at this time

METAR text: ESSB 181520Z 20008KT 7000 BR BKN007 05/03 Q1010 R12/09//74
Conditions at: ESSB (STOCKHOLM/BROMMA, SE) observed 1520 UTC 18 February 2019
Temperature: 5.0°C (41°F)
Dewpoint: 3.0°C (37°F) [RH = 87%]
Pressure (altimeter): 29.82 inches Hg (1010.0 mb)
Winds: from the SSW (200 degrees) at 9 MPH (8 knots; 4.1 m/s)
Visibility: 4 miles ( 7 km)
Ceiling: 700 feet AGL
Clouds: broken clouds at 700 feet AGL
Weather: BR  (mist)

METAR text: ESSB 181450Z 20008KT 9000 BR BKN008 05/03 Q1010 R12/09//74
Conditions at: ESSB (STOCKHOLM/BROMMA, SE) observed 1450 UTC 18 February 2019
Temperature: 5.0°C (41°F)
Dewpoint: 3.0°C (37°F) [RH = 87%]
Pressure (altimeter): 29.82 inches Hg (1010.0 mb)
Winds: from the SSW (200 degrees) at 9 MPH (8 knots; 4.1 m/s)
Visibility: 6 miles ( 9 km)
Ceiling: 800 feet AGL
Clouds: broken clouds at 800 feet AGL
Weather: BR  (mist)

METAR text: ESSB 181420Z 19008KT 9000 BR BKN009 05/03 Q1010 R12/09//74
Conditions at: ESSB (STOCKHOLM/BROMMA, SE) observed 1420 UTC 18 February 2019
Temperature: 5.0°C (41°F)
Dewpoint: 3.0°C (37°F) [RH = 87%]
Pressure (altimeter): 29.82 inches Hg (1010.0 mb)
Winds: from the S (190 degrees) at 9 MPH (8 knots; 4.1 m/s)
Visibility: 6 miles ( 9 km)
Ceiling: 900 feet AGL
Clouds: broken clouds at 900 feet AGL
Weather: BR  (mist)

METAR text: ESSB 181350Z 19009KT 9999 BKN009 05/03 Q1011 R12/09//73
Conditions at: ESSB (STOCKHOLM/BROMMA, SE) observed 1350 UTC 18 February 2019
Temperature: 5.0°C (41°F)
Dewpoint: 3.0°C (37°F) [RH = 87%]
Pressure (altimeter): 29.85 inches Hg (1011.0 mb)
Winds: from the S (190 degrees) at 10 MPH (9 knots; 4.6 m/s)
Visibility: 6 or more miles (10+ km)
Ceiling: 900 feet AGL
Clouds: broken clouds at 900 feet AGL
Weather: no significant weather observed at this time

METAR text: ESSB 181320Z 21008KT 170V240 9999 BKN008 05/03 Q1011 R12/09//73
Conditions at: ESSB (STOCKHOLM/BROMMA, SE) observed 1320 UTC 18 February 2019
Temperature: 5.0°C (41°F)
Dewpoint: 3.0°C (37°F) [RH = 87%]
Pressure (altimeter): 29.85 inches Hg (1011.0 mb)
Winds: from the SSW (210 degrees) at 9 MPH (8 knots; 4.1 m/s)
Visibility: 6 or more miles (10+ km)
Ceiling: 800 feet AGL
Clouds: broken clouds at 800 feet AGL
Weather: no significant weather observed at this time

METAR text: ESSB 181250Z 20009KT 9999 OVC010 05/03 Q1012 R12/09//73
Conditions at: ESSB (STOCKHOLM/BROMMA, SE) observed 1250 UTC 18 February 2019
Temperature: 5.0°C (41°F)
Dewpoint: 3.0°C (37°F) [RH = 87%]
Pressure (altimeter): 29.88 inches Hg (1012.0 mb)
Winds: from the SSW (200 degrees) at 10 MPH (9 knots; 4.6 m/s)
Visibility: 6 or more miles (10+ km)
Ceiling: 1000 feet AGL
Clouds: overcast cloud deck at 1000 feet AGL
Weather: no significant weather observed at this time

METAR text: ESSB 181220Z 20011KT 160V220 9999 OVC008 05/03 Q1012 R12/09//73
Conditions at: ESSB (STOCKHOLM/BROMMA, SE) observed 1220 UTC 18 February 2019
Temperature: 5.0°C (41°F)
Dewpoint: 3.0°C (37°F) [RH = 87%]
Pressure (altimeter): 29.88 inches Hg (1012.0 mb)
Winds: from the SSW (200 degrees) at 13 MPH (11 knots; 5.7 m/s)
Visibility: 6 or more miles (10+ km)
Ceiling: 800 feet AGL
Clouds: overcast cloud deck at 800 feet AGL
Weather: no significant weather observed at this time

METAR text: ESSB 181150Z 20012KT 160V230 9000 BKN006 05/03 Q1012 R12/09//73
Conditions at: ESSB (STOCKHOLM/BROMMA, SE) observed 1150 UTC 18 February 2019
Temperature: 5.0°C (41°F)
Dewpoint: 3.0°C (37°F) [RH = 87%]
Pressure (altimeter): 29.88 inches Hg (1012.0 mb)
Winds: from the SSW (200 degrees) at 14 MPH (12 knots; 6.2 m/s)
Visibility: 6 miles ( 9 km)
Ceiling: 600 feet AGL
Clouds: broken clouds at 600 feet AGL
Weather: no significant weather observed at this time

METAR text: ESSB 181120Z 19010KT 9000 BKN006 04/03 Q1013 R12/09//73
Conditions at: ESSB (STOCKHOLM/BROMMA, SE) observed 1120 UTC 18 February 2019
Temperature: 4.0°C (39°F)
Dewpoint: 3.0°C (37°F) [RH = 93%]
Pressure (altimeter): 29.91 inches Hg (1013.0 mb)
Winds: from the S (190 degrees) at 12 MPH (10 knots; 5.1 m/s)
Visibility: 6 miles ( 9 km)
Ceiling: 600 feet AGL
Clouds: broken clouds at 600 feet AGL
Weather: no significant weather observed at this time

METAR text: ESSB 181050Z 19007KT 9999 BKN005 03/03 Q1013 R12/09//73
Conditions at: ESSB (STOCKHOLM/BROMMA, SE) observed 1050 UTC 18 February 2019
Temperature: 3.0°C (37°F)
Dewpoint: 3.0°C (37°F) [RH = 100%]
Pressure (altimeter): 29.91 inches Hg (1013.0 mb)
Winds: from the S (190 degrees) at 8 MPH (7 knots; 3.6 m/s)
Visibility: 6 or more miles (10+ km)
Ceiling: 500 feet AGL
Clouds: broken clouds at 500 feet AGL
Weather: no significant weather observed at this time

METAR text: ESSB 181020Z 18007KT 7000 BKN003 02/02 Q1014 R12/09//73
Conditions at: ESSB (STOCKHOLM/BROMMA, SE) observed 1020 UTC 18 February 2019
Temperature: 2.0°C (36°F)
Dewpoint: 2.0°C (36°F) [RH = 100%]
Pressure (altimeter): 29.94 inches Hg (1014.0 mb)
Winds: from the S (180 degrees) at 8 MPH (7 knots; 3.6 m/s)
Visibility: 4 miles ( 7 km)
Ceiling: 300 feet AGL
Clouds: broken clouds at 300 feet AGL
Weather: no significant weather observed at this time

METAR text: ESSB 180950Z 19008KT 160V220 4900 BR BKN002 02/02 Q1015 R12/09//80
Conditions at: ESSB (STOCKHOLM/BROMMA, SE) observed 0950 UTC 18 February 2019
Temperature: 2.0°C (36°F)
Dewpoint: 2.0°C (36°F) [RH = 100%]
Pressure (altimeter): 29.97 inches Hg (1015.0 mb)
Winds: from the S (190 degrees) at 9 MPH (8 knots; 4.1 m/s)
Visibility: 3 miles ( 5 km)
Ceiling: 200 feet AGL
Clouds: broken clouds at 200 feet AGL
Weather: BR  (mist)

METAR text: ESSB 180920Z 18006KT 150V220 3500 BR BKN002 02/02 Q1015 R12/09//80
Conditions at: ESSB (STOCKHOLM/BROMMA, SE) observed 0920 UTC 18 February 2019
Temperature: 2.0°C (36°F)
Dewpoint: 2.0°C (36°F) [RH = 100%]
Pressure (altimeter): 29.97 inches Hg (1015.0 mb)
Winds: from the S (180 degrees) at 7 MPH (6 knots; 3.1 m/s)
Visibility: 2.17 miles (3.49 km)
Ceiling: 200 feet AGL
Clouds: broken clouds at 200 feet AGL
Weather: BR  (mist)

METAR text: ESSB 180850Z 18007KT 150V210 3500 BR OVC002 02/02 Q1015 R12/09//80
Conditions at: ESSB (STOCKHOLM/BROMMA, SE) observed 0850 UTC 18 February 2019
Temperature: 2.0°C (36°F)
Dewpoint: 2.0°C (36°F) [RH = 100%]
Pressure (altimeter): 29.97 inches Hg (1015.0 mb)
Winds: from the S (180 degrees) at 8 MPH (7 knots; 3.6 m/s)
Visibility: 2.17 miles (3.49 km)
Ceiling: 200 feet AGL
Clouds: overcast cloud deck at 200 feet AGL
Weather: BR  (mist)

METAR text: ESSB 180820Z 22008KT 3000 BR OVC003 02/01 Q1016 R12/09//80
Conditions at: ESSB (STOCKHOLM/BROMMA, SE) observed 0820 UTC 18 February 2019
Temperature: 2.0°C (36°F)
Dewpoint: 1.0°C (34°F) [RH = 93%]
Pressure (altimeter): 30.00 inches Hg (1016.0 mb)
Winds: from the SW (220 degrees) at 9 MPH (8 knots; 4.1 m/s)
Visibility: 1.86 miles (2.99 km)
Ceiling: 300 feet AGL
Clouds: overcast cloud deck at 300 feet AGL
Weather: BR  (mist)

METAR text: ESSB 180750Z 20009KT 170V230 9000 BKN003 03/02 Q1016 R12/09//80
Conditions at: ESSB (STOCKHOLM/BROMMA, SE) observed 0750 UTC 18 February 2019
Temperature: 3.0°C (37°F)
Dewpoint: 2.0°C (36°F) [RH = 93%]
Pressure (altimeter): 30.00 inches Hg (1016.0 mb)
Winds: from the SSW (200 degrees) at 10 MPH (9 knots; 4.6 m/s)
Visibility: 6 miles ( 9 km)
Ceiling: 300 feet AGL
Clouds: broken clouds at 300 feet AGL
Weather: no significant weather observed at this time

METAR text: ESSB 180720Z 17007KT 7000 BKN004 03/03 Q1016 R12/09//80
Conditions at: ESSB (STOCKHOLM/BROMMA, SE) observed 0720 UTC 18 February 2019
Temperature: 3.0°C (37°F)
Dewpoint: 3.0°C (37°F) [RH = 100%]
Pressure (altimeter): 30.00 inches Hg (1016.0 mb)
Winds: from the S (170 degrees) at 8 MPH (7 knots; 3.6 m/s)
Visibility: 4 miles ( 7 km)
Ceiling: 400 feet AGL
Clouds: broken clouds at 400 feet AGL
Weather: no significant weather observed at this time

METAR text: ESSB 180650Z 17007KT 6000 BKN004 03/02 Q1016 R12/09//80
Conditions at: ESSB (STOCKHOLM/BROMMA, SE) observed 0650 UTC 18 February 2019
Temperature: 3.0°C (37°F)
Dewpoint: 2.0°C (36°F) [RH = 93%]
Pressure (altimeter): 30.00 inches Hg (1016.0 mb)
Winds: from the S (170 degrees) at 8 MPH (7 knots; 3.6 m/s)
Visibility: 4 miles ( 6 km)
Ceiling: 400 feet AGL
Clouds: broken clouds at 400 feet AGL
Weather: no significant weather observed at this time

METAR text: ESSB 180620Z 16006KT 140V210 4500 BR BKN003 03/02 Q1017 R12/09//80
Conditions at: ESSB (STOCKHOLM/BROMMA, SE) observed 0620 UTC 18 February 2019
Temperature: 3.0°C (37°F)
Dewpoint: 2.0°C (36°F) [RH = 93%]
Pressure (altimeter): 30.03 inches Hg (1017.0 mb)
Winds: from the SSE (160 degrees) at 7 MPH (6 knots; 3.1 m/s)
Visibility: 2.80 miles (4.51 km)
Ceiling: 300 feet AGL
Clouds: broken clouds at 300 feet AGL
Weather: BR  (mist)

METAR text: ESSB 180550Z 15005KT 4000 BR BKN002 03/02 Q1017 R12/09//80
Conditions at: ESSB (STOCKHOLM/BROMMA, SE) observed 0550 UTC 18 February 2019
Temperature: 3.0°C (37°F)
Dewpoint: 2.0°C (36°F) [RH = 93%]
Pressure (altimeter): 30.03 inches Hg (1017.0 mb)
Winds: from the SSE (150 degrees) at 6 MPH (5 knots; 2.6 m/s)
Visibility: 2.49 miles (4.01 km)
Ceiling: 200 feet AGL
Clouds: broken clouds at 200 feet AGL
Weather: BR  (mist)

METAR text: ESSB 180520Z 16005KT 2500 BR BKN003 02/02 Q1017
Conditions at: ESSB (STOCKHOLM/BROMMA, SE) observed 0520 UTC 18 February 2019
Temperature: 2.0°C (36°F)
Dewpoint: 2.0°C (36°F) [RH = 100%]
Pressure (altimeter): 30.03 inches Hg (1017.0 mb)
Winds: from the SSE (160 degrees) at 6 MPH (5 knots; 2.6 m/s)
Visibility: 1.55 miles (2.49 km)
Ceiling: 300 feet AGL
Clouds: broken clouds at 300 feet AGL
Weather: BR  (mist)

METAR text: ESSB 180450Z AUTO 15004KT 3000 BR OVC002/// 02/02 Q1017
Conditions at: ESSB (STOCKHOLM/BROMMA, SE) observed 0450 UTC 18 February 2019
Temperature: 2.0°C (36°F)
Dewpoint: 2.0°C (36°F) [RH = 100%]
Pressure (altimeter): 30.03 inches Hg (1017.0 mb)
Winds: from the SSE (150 degrees) at 5 MPH (4 knots; 2.1 m/s)
Visibility: 1.86 miles (2.99 km)
Ceiling: 200 feet AGL
Clouds: overcast cloud deck at 200 feet AGL
Weather: BR  (mist)

METAR text: ESSB 180420Z AUTO 15004KT 9999 OVC003/// 02/02 Q1018
Conditions at: ESSB (STOCKHOLM/BROMMA, SE) observed 0420 UTC 18 February 2019
Temperature: 2.0°C (36°F)
Dewpoint: 2.0°C (36°F) [RH = 100%]
Pressure (altimeter): 30.06 inches Hg (1018.0 mb)
Winds: from the SSE (150 degrees) at 5 MPH (4 knots; 2.1 m/s)
Visibility: 6 or more miles (10+ km)
Ceiling: 300 feet AGL
Clouds: overcast cloud deck at 300 feet AGL
Weather: no significant weather observed at this time

METAR text: ESSB 180350Z AUTO 15005KT 9999 OVC005/// 02/01 Q1018
Conditions at: ESSB (STOCKHOLM/BROMMA, SE) observed 0350 UTC 18 February 2019
Temperature: 2.0°C (36°F)
Dewpoint: 1.0°C (34°F) [RH = 93%]
Pressure (altimeter): 30.06 inches Hg (1018.0 mb)
Winds: from the SSE (150 degrees) at 6 MPH (5 knots; 2.6 m/s)
Visibility: 6 or more miles (10+ km)
Ceiling: 500 feet AGL
Clouds: overcast cloud deck at 500 feet AGL
Weather: no significant weather observed at this time

METAR text: ESSB 180320Z AUTO 15004KT 9999 BKN006/// OVC018/// 02/01 Q1018
Conditions at: ESSB (STOCKHOLM/BROMMA, SE) observed 0320 UTC 18 February 2019
Temperature: 2.0°C (36°F)
Dewpoint: 1.0°C (34°F) [RH = 93%]
Pressure (altimeter): 30.06 inches Hg (1018.0 mb)
Winds: from the SSE (150 degrees) at 5 MPH (4 knots; 2.1 m/s)
Visibility: 6 or more miles (10+ km)
Ceiling: 600 feet AGL
Clouds: broken clouds at 600 feet AGL
overcast cloud deck at 1800 feet AGL
Weather: no significant weather observed at this time

METAR text: ESSB 180250Z AUTO 15005KT 9999 SCT007/// BKN010/// OVC019/// 02/00 Q1019
Conditions at: ESSB (STOCKHOLM/BROMMA, SE) observed 0250 UTC 18 February 2019
Temperature: 2.0°C (36°F)
Dewpoint: 0.0°C (32°F) [RH = 87%]
Pressure (altimeter): 30.09 inches Hg (1019.0 mb)
Winds: from the SSE (150 degrees) at 6 MPH (5 knots; 2.6 m/s)
Visibility: 6 or more miles (10+ km)
Ceiling: 1000 feet AGL
Clouds: scattered clouds at 700 feet AGL
broken clouds at 1000 feet AGL
overcast cloud deck at 1900 feet AGL
Weather: no significant weather observed at this time

METAR text: ESSB 180220Z AUTO 17006KT 9999 OVC007/// 02/00 Q1019
Conditions at: ESSB (STOCKHOLM/BROMMA, SE) observed 0220 UTC 18 February 2019
Temperature: 2.0°C (36°F)
Dewpoint: 0.0°C (32°F) [RH = 87%]
Pressure (altimeter): 30.09 inches Hg (1019.0 mb)
Winds: from the S (170 degrees) at 7 MPH (6 knots; 3.1 m/s)
Visibility: 6 or more miles (10+ km)
Ceiling: 700 feet AGL
Clouds: overcast cloud deck at 700 feet AGL
Weather: no significant weather observed at this time

METAR text: ESSB 180150Z AUTO 17005KT 9999 OVC008/// 02/M01 Q1019
Conditions at: ESSB (STOCKHOLM/BROMMA, SE) observed 0150 UTC 18 February 2019
Temperature: 2.0°C (36°F)
Dewpoint: -1.0°C (30°F) [RH = 80%]
Pressure (altimeter): 30.09 inches Hg (1019.0 mb)
Winds: from the S (170 degrees) at 6 MPH (5 knots; 2.6 m/s)
Visibility: 6 or more miles (10+ km)
Ceiling: 800 feet AGL
Clouds: overcast cloud deck at 800 feet AGL
Weather: no significant weather observed at this time

METAR text: ESSB 180120Z AUTO 16007KT 9999 OVC009/// 02/M02 Q1019
Conditions at: ESSB (STOCKHOLM/BROMMA, SE) observed 0120 UTC 18 February 2019
Temperature: 2.0°C (36°F)
Dewpoint: -2.0°C (28°F) [RH = 75%]
Pressure (altimeter): 30.09 inches Hg (1019.0 mb)
Winds: from the SSE (160 degrees) at 8 MPH (7 knots; 3.6 m/s)
Visibility: 6 or more miles (10+ km)
Ceiling: 900 feet AGL
Clouds: overcast cloud deck at 900 feet AGL
Weather: no significant weather observed at this time

METAR text: ESSB 180050Z AUTO 16005KT 9999 OVC009/// 02/M02 Q1020
Conditions at: ESSB (STOCKHOLM/BROMMA, SE) observed 0050 UTC 18 February 2019
Temperature: 2.0°C (36°F)
Dewpoint: -2.0°C (28°F) [RH = 75%]
Pressure (altimeter): 30.12 inches Hg (1020.0 mb)
Winds: from the SSE (160 degrees) at 6 MPH (5 knots; 2.6 m/s)
Visibility: 6 or more miles (10+ km)
Ceiling: 900 feet AGL
Clouds: overcast cloud deck at 900 feet AGL
Weather: no significant weather observed at this time

METAR text: ESSB 180020Z AUTO 17005KT 9999 OVC009/// 02/M03 Q1020
Conditions at: ESSB (STOCKHOLM/BROMMA, SE) observed 0020 UTC 18 February 2019
Temperature: 2.0°C (36°F)
Dewpoint: -3.0°C (27°F) [RH = 69%]
Pressure (altimeter): 30.12 inches Hg (1020.0 mb)
Winds: from the S (170 degrees) at 6 MPH (5 knots; 2.6 m/s)
Visibility: 6 or more miles (10+ km)
Ceiling: 900 feet AGL
Clouds: overcast cloud deck at 900 feet AGL
Weather: no significant weather observed at this time

METAR text: ESSB 172350Z AUTO 16005KT 9999 BKN009/// OVC012/// 02/M03 Q1020
Conditions at: ESSB (STOCKHOLM/BROMMA, SE) observed 2350 UTC 17 February 2019
Temperature: 2.0°C (36°F)
Dewpoint: -3.0°C (27°F) [RH = 69%]
Pressure (altimeter): 30.12 inches Hg (1020.0 mb)
Winds: from the SSE (160 degrees) at 6 MPH (5 knots; 2.6 m/s)
Visibility: 6 or more miles (10+ km)
Ceiling: 900 feet AGL
Clouds: broken clouds at 900 feet AGL
overcast cloud deck at 1200 feet AGL
Weather: no significant weather observed at this time

Forecast for: ESSB (STOCKHOLM/BROMMA, SE)
Text: TAF ESSB 190830Z 1909/1918 21008KT 9999 SCT008 BKN015
Forecast period: 0900 to 1800 UTC 19 February 2019
Forecast type: FROM: standard forecast or significant change
Winds: from the SSW (210 degrees) at 9 MPH (8 knots; 4.1 m/s)
Visibility: 6 or more miles 10+ km)
Ceiling: 1500 feet AGL
Clouds: scattered clouds at 800 feet AGL
broken clouds at 1500 feet AGL
Weather: no significant weather forecast for this period
Text: PROB40 1909/1913 BKN014
Forecast period: 0900 to 1300 UTC 19 February 2019
Forecast type: PROBABLE: 40 percent likelihood of the following during this time
Visibility: missing
Ceiling: 1400 feet AGL
Clouds: broken clouds at 1400 feet AGL
Weather: no significant weather forecast for this period